createdAt,value
2022-11-21T00:02:04.283Z,74.89
2022-11-21T00:04:34.807Z,75.50
2022-11-21T00:07:04.883Z,75.55
2022-11-21T00:09:35.272Z,75.62
2022-11-21T00:12:05.658Z,75.81
2022-11-21T00:14:36.518Z,75.82
2022-11-21T00:17:06.825Z,76.12
2022-11-21T00:19:36.292Z,75.50
2022-11-21T00:22:06.270Z,76.40
2022-11-21T00:24:36.615Z,77.07
2022-11-21T00:27:06.936Z,77.01
2022-11-21T00:29:37.422Z,77.80
2022-11-21T00:32:07.483Z,77.97
2022-11-21T00:34:38.013Z,77.81
2022-11-21T00:37:08.287Z,78.16
2022-11-21T00:39:37.825Z,77.05
2022-11-21T00:42:07.824Z,78.22
2022-11-21T00:44:37.913Z,78.56
2022-11-21T00:47:08.242Z,78.91
2022-11-21T00:49:38.674Z,79.17
2022-11-21T00:52:08.976Z,78.96
2022-11-21T00:54:39.388Z,78.73
2022-11-21T00:57:09.686Z,79.46
2022-11-21T00:59:40.179Z,79.22
2022-11-21T01:02:10.220Z,79.52
2022-11-21T01:04:40.476Z,79.37
2022-11-21T01:07:10.724Z,80.32
2022-11-21T01:09:40.744Z,80.40
2022-11-21T01:12:11.032Z,79.78
2022-11-21T01:14:41.593Z,80.12
2022-11-21T01:17:11.933Z,80.74
2022-11-21T01:20:00.505Z,80.31
2022-11-21T01:22:30.343Z,79.29
2022-11-21T01:25:00.329Z,80.01
2022-11-21T01:27:30.617Z,80.47
2022-11-21T01:30:01.256Z,80.16
2022-11-21T01:32:31.512Z,80.04
2022-11-21T01:35:02.109Z,80.16
2022-11-21T01:37:32.579Z,79.99
2022-11-21T01:40:02.680Z,79.78
2022-11-21T01:42:45.455Z,78.88
2022-11-21T01:45:50.892Z,78.91
2022-11-21T01:48:22.585Z,79.61
2022-11-21T01:50:52.975Z,79.27
2022-11-21T01:53:23.686Z,79.91
2022-11-21T01:55:55.183Z,79.62
2022-11-21T01:58:26.666Z,79.62
2022-11-21T02:00:57.385Z,79.64
2022-11-21T02:03:33.111Z,79.56
2022-11-21T02:06:03.574Z,79.96
2022-11-21T02:08:34.191Z,80.37
2022-11-21T02:11:23.435Z,81.18
2022-11-21T02:13:54.049Z,81.45
2022-11-21T02:16:26.115Z,81.81
2022-11-21T02:18:56.994Z,81.93
2022-11-21T02:22:05.803Z,81.90
2022-11-21T02:24:47.545Z,82.07
2022-11-21T02:27:19.000Z,82.22
2022-11-21T02:29:49.380Z,82.93
2022-11-21T02:32:33.656Z,82.14
2022-11-21T02:35:04.122Z,82.61
2022-11-21T02:37:37.579Z,82.75
2022-11-21T02:40:13.542Z,82.97
2022-11-21T02:43:02.170Z,83.00
2022-11-21T02:45:44.307Z,82.98
2022-11-21T02:48:15.354Z,83.40
2022-11-21T02:50:47.603Z,83.06
2022-11-21T02:53:20.097Z,83.74
2022-11-21T02:55:50.436Z,84.28
2022-11-21T02:58:21.195Z,84.46
2022-11-21T03:00:51.753Z,84.79
2022-11-21T03:03:22.370Z,84.36
2022-11-21T03:05:52.802Z,84.78
2022-11-21T03:08:22.352Z,83.91
2022-11-21T03:10:52.295Z,85.17
2022-11-21T03:13:22.659Z,85.51
2022-11-21T03:15:53.379Z,85.62
2022-11-21T03:18:23.771Z,85.04
2022-11-21T03:20:53.964Z,84.22
2022-11-21T03:23:24.213Z,85.48
2022-11-21T03:25:54.558Z,85.19
2022-11-21T03:28:24.867Z,84.84
2022-11-21T03:30:55.211Z,85.19
2022-11-21T03:33:24.817Z,84.66
2022-11-21T03:35:54.753Z,86.29
2022-11-21T03:38:25.056Z,86.25
2022-11-21T03:40:55.363Z,86.40
2022-11-21T03:43:25.662Z,86.32
2022-11-21T03:45:55.978Z,87.04
2022-11-21T03:48:25.579Z,85.33
2022-11-21T03:50:55.726Z,86.10
2022-11-21T03:53:26.075Z,85.43
2022-11-21T03:55:56.365Z,85.92
2022-11-21T03:58:26.635Z,85.75
2022-11-21T04:00:56.997Z,85.44
2022-11-21T04:03:27.434Z,85.86
2022-11-21T04:05:57.117Z,85.34
2022-11-21T04:08:28.139Z,85.69
2022-11-21T04:10:58.436Z,85.91
2022-11-21T04:13:27.994Z,84.74
2022-11-21T04:15:58.194Z,85.53
2022-11-21T04:18:28.685Z,85.72
2022-11-21T04:21:00.285Z,85.88
2022-11-21T04:23:30.925Z,86.08
2022-11-21T04:26:01.335Z,85.99
2022-11-21T04:28:32.146Z,85.83
2022-11-21T04:31:11.095Z,86.18
2022-11-21T04:33:41.960Z,86.28
2022-11-21T04:36:12.253Z,86.25
2022-11-21T04:38:42.818Z,86.03
2022-11-21T04:41:13.158Z,86.55
2022-11-21T04:43:43.635Z,86.68
2022-11-21T04:46:14.026Z,86.90
2022-11-21T04:48:44.327Z,86.45
2022-11-21T04:51:13.898Z,85.80
2022-11-21T04:53:44.085Z,86.55
2022-11-21T04:56:17.667Z,86.70
2022-11-21T04:58:47.959Z,86.85
2022-11-21T05:01:18.280Z,87.01
2022-11-21T05:03:48.551Z,86.43
2022-11-21T05:06:18.861Z,86.97
2022-11-21T05:08:52.709Z,86.60
2022-11-21T05:11:42.503Z,85.91
2022-11-21T05:14:12.827Z,86.09
2022-11-21T05:16:42.480Z,86.05
2022-11-21T05:19:12.418Z,87.42
2022-11-21T05:21:42.715Z,87.44
2022-11-21T05:24:13.022Z,87.68
2022-11-21T05:26:43.615Z,87.34
2022-11-21T05:29:14.276Z,87.84
2022-11-21T05:31:44.604Z,87.30
2022-11-21T05:34:15.041Z,87.46
2022-11-21T05:36:45.391Z,87.50
2022-11-21T05:39:15.818Z,87.01
2022-11-21T05:41:46.307Z,87.39
2022-11-21T05:44:16.585Z,87.64
2022-11-21T05:46:46.940Z,87.65
2022-11-21T05:49:17.302Z,88.24
2022-11-21T05:51:47.593Z,87.88
2022-11-21T05:54:19.141Z,88.05
2022-11-21T05:56:49.471Z,87.99
2022-11-21T05:59:19.084Z,87.09
2022-11-21T06:02:21.393Z,88.26
2022-11-21T06:04:51.655Z,88.36
2022-11-21T06:07:22.016Z,88.38
2022-11-21T06:09:52.307Z,88.42
2022-11-21T06:12:25.468Z,88.46
2022-11-21T06:14:56.222Z,88.62
2022-11-21T06:17:25.892Z,87.72
2022-11-21T06:19:56.105Z,88.52
2022-11-21T06:22:26.421Z,88.76
2022-11-21T06:24:56.746Z,88.28
2022-11-21T06:27:27.020Z,88.77
2022-11-21T06:29:57.375Z,88.60
2022-11-21T06:32:27.116Z,88.20
2022-11-21T06:34:57.372Z,88.87
2022-11-21T06:37:29.367Z,88.36
2022-11-21T06:40:01.439Z,88.60
2022-11-21T06:42:34.127Z,88.88
2022-11-21T06:45:04.589Z,88.74
2022-11-21T06:47:38.034Z,88.39
2022-11-21T06:50:09.029Z,88.64
2022-11-21T06:52:39.332Z,88.69
2022-11-21T06:55:11.540Z,88.71
2022-11-21T06:57:42.192Z,88.73
2022-11-21T07:00:13.105Z,88.82
2022-11-21T07:02:43.442Z,88.36
2022-11-21T07:05:13.686Z,88.43
2022-11-21T07:07:44.128Z,88.63
2022-11-21T07:10:14.525Z,88.61
2022-11-21T07:13:02.657Z,87.41
2022-11-21T07:15:34.260Z,88.55
2022-11-21T07:18:04.616Z,88.55
2022-11-21T07:20:35.119Z,88.77
2022-11-21T07:23:05.480Z,88.44
2022-11-21T07:25:36.940Z,88.47
2022-11-21T07:28:09.074Z,89.15
2022-11-21T07:30:39.684Z,89.28
2022-11-21T07:33:10.641Z,88.60
2022-11-21T07:35:41.021Z,88.41
2022-11-21T07:38:11.655Z,88.40
2022-11-21T07:40:41.952Z,88.26
2022-11-21T07:43:13.520Z,88.44
2022-11-21T07:45:43.789Z,88.33
2022-11-21T07:48:14.346Z,88.46
2022-11-21T07:50:44.695Z,88.50
2022-11-21T07:53:15.284Z,88.71
2022-11-21T07:55:45.748Z,88.61
2022-11-21T07:58:18.537Z,88.39
2022-11-21T08:00:48.850Z,87.88
2022-11-21T08:03:19.268Z,88.09
2022-11-21T08:05:49.727Z,88.58
2022-11-21T08:08:20.245Z,88.65
2022-11-21T08:10:52.685Z,88.69
2022-11-21T08:13:23.127Z,89.50
2022-11-21T08:15:53.446Z,89.49
2022-11-21T08:18:24.005Z,89.91
2022-11-21T08:20:54.547Z,89.97
2022-11-21T08:23:24.935Z,90.21
2022-11-21T08:25:55.277Z,90.49
2022-11-21T08:28:26.006Z,89.72
2022-11-21T08:30:56.565Z,89.58
2022-11-21T08:33:26.929Z,89.60
2022-11-21T08:36:00.664Z,89.69
2022-11-21T08:38:31.282Z,89.57
2022-11-21T08:41:20.054Z,89.33
2022-11-21T08:43:50.632Z,89.41
2022-11-21T08:46:21.060Z,89.15
2022-11-21T08:48:51.418Z,89.18
2022-11-21T08:51:21.826Z,89.43
2022-11-21T08:53:52.295Z,89.35
2022-11-21T08:56:22.415Z,89.61
2022-11-21T08:58:52.771Z,89.55
2022-11-21T09:01:23.216Z,90.10
2022-11-21T09:03:53.608Z,89.94
2022-11-21T09:06:23.899Z,89.79
2022-11-21T09:08:54.404Z,89.78
2022-11-21T09:11:26.299Z,89.73
2022-11-21T09:14:15.234Z,89.87
2022-11-21T09:17:03.720Z,89.92
2022-11-21T09:19:34.092Z,89.67
2022-11-21T09:22:04.465Z,89.55
2022-11-21T09:24:35.069Z,89.42
2022-11-21T09:27:05.430Z,89.28
2022-11-21T09:29:35.038Z,88.58
2022-11-21T09:32:05.297Z,89.47
2022-11-21T09:34:35.674Z,89.32
2022-11-21T09:37:05.988Z,88.51
2022-11-21T09:39:36.386Z,88.41
2022-11-21T09:42:12.492Z,88.12
2022-11-21T09:44:47.108Z,88.07
2022-11-21T09:47:26.270Z,87.95
2022-11-21T09:50:04.660Z,87.50
2022-11-21T09:52:43.132Z,87.90
2022-11-21T09:55:39.434Z,87.99
2022-11-21T09:58:35.869Z,88.42
2022-11-21T10:01:06.940Z,88.30
2022-11-21T10:03:52.221Z,88.14
2022-11-21T10:06:23.869Z,88.13
2022-11-21T10:09:21.508Z,86.75
2022-11-21T10:12:41.071Z,86.23
2022-11-21T10:15:22.742Z,86.06
2022-11-21T10:18:05.117Z,87.37
2022-11-21T10:21:01.536Z,86.72
2022-11-21T10:23:34.842Z,84.68
2022-11-21T10:26:29.263Z,84.02
2022-11-21T10:29:28.495Z,84.31
2022-11-21T10:32:04.471Z,83.78
2022-11-21T10:34:39.938Z,82.48
2022-11-21T10:37:33.254Z,81.68
2022-11-21T10:40:20.511Z,82.14
2022-11-21T10:43:48.882Z,81.12
2022-11-21T10:46:19.607Z,79.22
2022-11-21T10:49:00.481Z,77.85
2022-11-21T10:51:51.509Z,78.62
2022-11-21T10:54:37.732Z,78.24
2022-11-21T10:57:18.534Z,77.70
2022-11-21T11:00:14.461Z,76.48
2022-11-21T11:03:08.939Z,74.22
2022-11-21T11:05:40.364Z,74.38
2022-11-21T11:08:13.644Z,72.04
2022-11-21T11:11:05.980Z,72.75
2022-11-21T11:13:55.220Z,72.25
2022-11-21T11:16:27.574Z,72.29
2022-11-21T11:19:27.103Z,71.62
2022-11-21T11:22:02.063Z,72.27
2022-11-21T11:24:32.629Z,71.36
2022-11-21T11:27:04.492Z,70.93
2022-11-21T11:29:42.905Z,70.12
2022-11-21T11:32:22.039Z,73.60
2022-11-21T11:35:04.353Z,70.83
2022-11-21T11:37:42.172Z,69.63
2022-11-21T11:40:37.582Z,71.01
2022-11-21T11:43:33.914Z,69.32
2022-11-21T11:46:39.882Z,69.17
2022-11-21T11:49:28.243Z,69.20
2022-11-21T11:52:06.281Z,69.59
2022-11-21T11:54:51.254Z,68.85
2022-11-21T11:57:21.948Z,69.59
2022-11-21T12:00:04.841Z,67.26
2022-11-21T12:02:53.887Z,68.25
2022-11-21T12:05:26.693Z,69.11
2022-11-21T12:08:40.350Z,68.98
2022-11-21T12:11:27.107Z,68.38
2022-11-21T12:13:58.924Z,69.88
2022-11-21T12:16:31.074Z,68.56
2022-11-21T12:19:12.331Z,69.59
2022-11-21T12:21:42.745Z,69.16
2022-11-21T12:24:13.736Z,68.63
2022-11-21T12:27:16.435Z,66.51
2022-11-21T12:29:55.845Z,68.44
2022-11-21T12:32:57.079Z,68.39
2022-11-21T12:35:33.201Z,68.25
2022-11-21T12:38:21.701Z,68.40
2022-11-21T12:41:34.696Z,65.69
2022-11-21T12:44:32.718Z,66.92
2022-11-21T12:47:21.485Z,66.90
2022-11-21T12:50:48.309Z,67.01
2022-11-21T12:53:49.642Z,67.42
2022-11-21T12:56:50.204Z,66.71
2022-11-21T12:59:21.857Z,66.39
2022-11-21T13:02:21.448Z,66.87
2022-11-21T13:04:52.750Z,66.59
2022-11-21T13:07:25.330Z,65.34
2022-11-21T13:09:58.088Z,66.05
2022-11-21T13:12:46.434Z,66.99
2022-11-21T13:15:22.679Z,64.01
2022-11-21T13:18:32.270Z,64.85
2022-11-21T13:21:02.624Z,63.35
2022-11-21T13:23:44.417Z,63.96
2022-11-21T13:26:26.835Z,63.85
2022-11-21T13:29:11.719Z,65.46
2022-11-21T13:31:42.798Z,64.02
2022-11-21T13:34:37.136Z,64.42
2022-11-21T13:37:07.923Z,64.46
2022-11-21T13:39:39.420Z,64.67
2022-11-21T13:42:29.536Z,65.49
2022-11-21T13:45:00.768Z,65.75
2022-11-21T13:47:56.926Z,65.08
2022-11-21T13:50:39.114Z,65.85
2022-11-21T13:53:28.361Z,65.63
2022-11-21T13:56:04.862Z,65.63
2022-11-21T13:58:44.312Z,66.31
2022-11-21T14:01:35.616Z,65.02
2022-11-21T14:04:33.113Z,66.18
2022-11-21T14:07:29.496Z,65.49
2022-11-21T14:10:03.492Z,64.32
2022-11-21T14:12:44.752Z,65.11
2022-11-21T14:15:42.040Z,64.79
2022-11-21T14:18:32.845Z,63.84
2022-11-21T14:21:05.685Z,65.13
2022-11-21T14:23:45.575Z,63.31
2022-11-21T14:26:22.595Z,64.85
2022-11-21T14:28:53.844Z,65.55
2022-11-21T14:31:24.201Z,64.85
2022-11-21T14:33:59.677Z,64.87
2022-11-21T14:36:33.326Z,63.47
2022-11-21T14:42:04.901Z,64.31
2022-11-21T14:44:35.778Z,64.07
2022-11-21T14:47:26.612Z,65.62
2022-11-21T14:50:03.767Z,65.05
2022-11-21T14:52:37.334Z,65.99
2022-11-21T14:55:30.088Z,64.62
2022-11-21T14:58:03.799Z,64.71
2022-11-21T15:00:58.695Z,65.56
2022-11-21T15:03:25.601Z,64.44
2022-11-21T15:06:12.203Z,63.29
2022-11-21T15:11:35.743Z,64.88
2022-11-21T15:14:20.317Z,64.14
2022-11-21T15:16:53.811Z,65.87
2022-11-21T15:19:27.957Z,64.24
2022-11-21T15:22:00.452Z,63.78
2022-11-21T15:24:43.989Z,64.42
2022-11-21T15:27:29.371Z,64.32
2022-11-21T15:30:22.400Z,63.36
2022-11-21T15:33:03.560Z,62.85
2022-11-21T15:35:40.058Z,64.00
2022-11-21T15:38:41.978Z,63.98
2022-11-21T15:41:12.389Z,63.34
2022-11-21T15:43:51.603Z,63.28
2022-11-21T15:46:24.501Z,62.98
2022-11-21T15:48:57.073Z,62.89
2022-11-21T15:52:05.637Z,61.72
2022-11-21T15:54:29.661Z,61.84
2022-11-21T15:57:00.563Z,62.58
2022-11-21T15:59:31.444Z,61.76
2022-11-21T16:02:02.185Z,61.04
2022-11-21T16:04:32.559Z,60.95
2022-11-21T16:07:03.266Z,61.15
2022-11-21T16:09:33.704Z,62.04
2022-11-21T16:12:03.994Z,61.50
2022-11-21T16:14:34.412Z,62.68
2022-11-21T16:17:04.882Z,62.30
2022-11-21T16:19:35.221Z,61.79
2022-11-21T16:22:05.431Z,62.07
2022-11-21T16:24:35.779Z,61.23
2022-11-21T16:27:06.178Z,62.64
2022-11-21T16:29:36.765Z,62.78
2022-11-21T16:32:07.314Z,61.76
2022-11-21T16:34:37.714Z,63.03
2022-11-21T16:37:07.976Z,62.94
2022-11-21T16:39:38.296Z,62.27
2022-11-21T16:42:12.838Z,61.14
2022-11-21T16:44:43.296Z,59.07
2022-11-21T16:47:15.035Z,60.59
2022-11-21T16:49:48.652Z,59.58
2022-11-21T16:52:19.465Z,59.20
2022-11-21T16:54:49.820Z,60.15
2022-11-21T16:57:20.428Z,59.78
2022-11-21T16:59:51.338Z,61.21
2022-11-21T17:02:21.528Z,60.42
2022-11-21T17:04:53.506Z,62.39
2022-11-21T17:07:23.999Z,61.84
2022-11-21T17:09:54.429Z,61.62
2022-11-21T17:12:25.159Z,61.40
2022-11-21T17:14:55.495Z,61.48
2022-11-21T17:17:25.854Z,62.16
2022-11-21T17:19:56.190Z,61.57
2022-11-21T17:22:26.843Z,60.83
2022-11-21T17:24:57.295Z,62.34
2022-11-21T17:27:28.222Z,62.68
2022-11-21T17:29:58.500Z,62.35
2022-11-21T17:32:28.855Z,63.39
2022-11-21T17:34:59.171Z,62.82
2022-11-21T17:37:29.480Z,62.55
2022-11-21T17:39:59.863Z,61.67
2022-11-21T17:42:30.213Z,63.20
2022-11-21T17:45:00.372Z,63.01
2022-11-21T17:47:30.603Z,62.53
2022-11-21T17:50:05.695Z,63.43
2022-11-21T17:52:36.477Z,63.41
2022-11-21T17:55:07.817Z,63.56
2022-11-21T17:57:38.381Z,64.31
2022-11-21T18:00:09.672Z,64.36
2022-11-21T18:02:40.131Z,64.48
2022-11-21T18:05:10.901Z,64.66
2022-11-21T18:07:41.199Z,64.89
2022-11-21T18:10:40.944Z,64.13
2022-11-21T18:13:01.913Z,63.55
2022-11-21T18:15:32.203Z,63.70
2022-11-21T18:18:02.391Z,63.52
2022-11-21T18:20:32.624Z,64.11
2022-11-21T18:23:02.892Z,63.20
2022-11-21T18:25:36.419Z,64.09
2022-11-21T18:28:07.505Z,63.78
2022-11-21T18:30:39.748Z,63.57
2022-11-21T18:33:14.545Z,64.67
2022-11-21T18:35:48.206Z,63.99
2022-11-21T18:38:46.162Z,63.58
2022-11-21T18:41:14.218Z,64.28
2022-11-21T18:43:47.028Z,65.20
2022-11-21T18:46:17.816Z,64.47
2022-11-21T18:49:02.215Z,65.27
2022-11-21T18:51:34.969Z,65.30
2022-11-21T18:54:11.532Z,65.65
2022-11-21T18:56:42.149Z,65.74
2022-11-21T18:59:12.827Z,65.84
2022-11-21T19:01:43.151Z,67.07
2022-11-21T19:04:13.448Z,66.94
2022-11-21T19:06:43.716Z,65.88
2022-11-21T19:09:14.088Z,66.10
2022-11-21T19:11:44.653Z,65.94
2022-11-21T19:14:14.995Z,66.21
2022-11-21T19:16:45.313Z,66.58
2022-11-21T19:22:07.434Z,66.31
2022-11-21T19:24:37.885Z,66.31
2022-11-21T19:27:08.775Z,66.99
2022-11-21T19:29:38.965Z,66.32
2022-11-21T19:32:09.216Z,65.95
2022-11-21T19:34:39.532Z,66.19
2022-11-21T19:37:09.812Z,66.49
2022-11-21T19:39:40.140Z,65.55
2022-11-21T19:42:10.447Z,64.55
2022-11-21T19:44:40.884Z,66.82
2022-11-21T19:47:12.462Z,65.68
2022-11-21T19:49:42.779Z,65.47
2022-11-21T19:52:12.973Z,64.76
2022-11-21T19:54:43.384Z,65.98
2022-11-21T19:57:14.199Z,66.25
2022-11-21T19:59:46.844Z,65.97
2022-11-21T20:02:22.655Z,66.08
2022-11-21T20:04:52.994Z,66.34
2022-11-21T20:07:23.507Z,66.74
2022-11-21T20:09:53.771Z,66.27
2022-11-21T20:12:24.052Z,65.64
2022-11-21T20:14:55.001Z,65.55
2022-11-21T20:17:25.265Z,65.84
2022-11-21T20:19:55.544Z,65.02
2022-11-21T20:22:25.819Z,65.68
2022-11-21T20:24:56.043Z,65.23
2022-11-21T20:27:26.776Z,66.26
2022-11-21T20:29:57.242Z,66.25
2022-11-21T20:32:29.538Z,66.01
2022-11-21T20:34:59.925Z,66.00
2022-11-21T20:37:30.185Z,65.99
2022-11-21T20:40:00.554Z,65.81
2022-11-21T20:42:30.818Z,67.15
2022-11-21T20:47:51.380Z,66.95
2022-11-21T20:50:48.719Z,66.84
2022-11-21T20:56:07.531Z,67.64
2022-11-21T20:58:40.735Z,67.34
2022-11-21T21:01:14.375Z,67.75
2022-11-21T21:03:44.880Z,67.83
2022-11-21T21:06:16.845Z,67.74
2022-11-21T21:08:48.887Z,67.49
2022-11-21T21:11:50.961Z,66.96
2022-11-21T21:14:14.651Z,67.64
2022-11-21T21:16:45.542Z,67.63
2022-11-21T21:19:16.026Z,67.70
2022-11-21T21:21:46.459Z,67.96
2022-11-21T21:24:17.315Z,67.39
2022-11-21T21:26:50.367Z,67.62
2022-11-21T21:29:22.301Z,67.63
2022-11-21T21:31:53.087Z,67.53
2022-11-21T21:34:24.385Z,68.26
2022-11-21T21:36:54.691Z,68.67
2022-11-21T21:39:25.709Z,69.48
2022-11-21T21:41:56.035Z,70.57
2022-11-21T21:44:31.533Z,70.78
2022-11-21T21:47:03.797Z,71.94
2022-11-21T21:49:34.109Z,72.04
2022-11-21T21:52:04.487Z,72.43
2022-11-21T21:54:34.802Z,70.76
2022-11-21T21:57:05.151Z,72.96
2022-11-21T21:59:35.417Z,72.58
2022-11-21T22:02:06.597Z,72.35
2022-11-21T22:04:36.857Z,70.44
2022-11-21T22:07:06.878Z,70.60
2022-11-21T22:09:37.381Z,70.80
2022-11-21T22:12:07.814Z,71.11
2022-11-21T22:14:40.914Z,71.92
2022-11-21T22:17:11.237Z,72.01
2022-11-21T22:19:41.284Z,72.59
2022-11-21T22:22:11.533Z,72.90
2022-11-21T22:24:42.042Z,73.21
2022-11-21T22:27:12.577Z,73.66
2022-11-21T22:29:43.239Z,74.00
2022-11-21T22:32:19.324Z,73.82
2022-11-21T22:34:50.055Z,74.41
2022-11-21T22:37:20.488Z,74.63
2022-11-21T22:39:50.689Z,72.82
2022-11-21T22:42:20.203Z,73.31
2022-11-21T22:44:50.522Z,72.90
2022-11-21T22:47:20.606Z,72.87
2022-11-21T22:49:50.757Z,72.78
2022-11-21T22:52:20.931Z,72.14
2022-11-21T22:54:51.534Z,72.36
2022-11-21T22:57:21.820Z,72.80
2022-11-21T22:59:52.155Z,73.24
2022-11-21T23:02:22.715Z,73.57
2022-11-21T23:04:53.081Z,73.80
2022-11-21T23:07:23.383Z,72.38
2022-11-21T23:09:53.496Z,72.42
2022-11-21T23:12:23.855Z,72.66
2022-11-21T23:14:54.929Z,72.58
2022-11-21T23:17:25.223Z,72.25
2022-11-21T23:19:55.480Z,72.33
2022-11-21T23:22:25.761Z,71.85
2022-11-21T23:24:56.127Z,72.96
2022-11-21T23:27:26.364Z,72.95
2022-11-21T23:29:55.907Z,72.38
2022-11-21T23:32:26.190Z,74.26
2022-11-21T23:34:56.491Z,73.64
2022-11-21T23:37:26.879Z,73.65
2022-11-21T23:39:57.218Z,73.78
2022-11-21T23:42:27.445Z,74.58
2022-11-21T23:44:57.710Z,74.31
2022-11-21T23:47:28.086Z,74.33
2022-11-21T23:49:58.439Z,74.84
2022-11-21T23:52:28.767Z,75.76
2022-11-21T23:54:59.307Z,75.37
2022-11-21T23:57:29.578Z,76.00
2022-11-21T23:59:59.803Z,77.32
